This is the latest recevied weather packets stored in our database for station/object GW1492. If no packets are shown the sender has not sent any weather packets the latest 10 day(s).
| Time | Temp. | Humidity | Pressure | Rain* | Wind** | Luminosity | Snow |
|---|---|---|---|---|---|---|---|
| 1777445330 | 16.11° C | 92% | 1015.5 hPa | 0 mm | - | - | - |
| 1777443878 | 16.11° C | 91% | 1015.5 hPa | 0 mm | - | - | - |
| 1777442072 | 16.11° C | 91% | 1016.5 hPa | 0 mm | - | - | - |
| 1777441332 | 16.11° C | 91% | 1016.9 hPa | 0 mm | - | - | - |
| 1777438126 | 15.56° C | 92% | 1017.2 hPa | 0 mm | - | - | - |
| 1777436667 | 15.56° C | 92% | 1016.9 hPa | 0 mm | - | - | - |
| 1777433447 | 15.56° C | 92% | 1017.6 hPa | 0 mm | - | - | - |
| 1777431256 | 16.11° C | 90% | 1018.2 hPa | 0 mm | - | - | - |
| 1777430213 | 16.67° C | 89% | 1018.2 hPa | 0 mm | - | - | - |
| 1777428392 | 16.67° C | 89% | 1018.9 hPa | 0 mm | - | - | - |
| 1777421908 | 16.67° C | 86% | 1016.9 hPa | 0 mm | - | - | - |
| 1777420098 | 17.78° C | 85% | 1017.2 hPa | 0 mm | - | - | - |
| 1777418667 | 18.89° C | 82% | 1017.6 hPa | 0 mm | - | - | - |
| 1777417608 | 18.89° C | 83% | 1017.6 hPa | 0 mm | - | - | - |
| 1777417237 | 18.89° C | 83% | 1017.6 hPa | 0 mm | - | - | - |
| 1777406074 | 20° C | 79% | 1018.9 hPa | 0 mm | - | - | - |
| 1777400331 | 20.56° C | 71% | 1019.3 hPa | 0 mm | - | - | - |
| 1777399601 | 22.22° C | 69% | 1019.6 hPa | 0 mm | - | - | - |
| 1777398136 | 22.22° C | 71% | 1019.6 hPa | 0 mm | - | - | - |
| 1777395648 | 18.89° C | 78% | 1019.9 hPa | 0 mm | - | - | - |
| 1777394924 | 18.33° C | 79% | 1019.6 hPa | 0 mm | - | - | - |
| 1777394204 | 17.78° C | 81% | 1019.9 hPa | 0 mm | - | - | - |
| 1777392754 | 16.67° C | 83% | 1020.3 hPa | 0 mm | - | - | - |
| 1777388785 | 15.56° C | 88% | 1020.3 hPa | 0 mm | - | - | - |
| 1777388452 | 15.56° C | 88% | 1019.9 hPa | 0 mm | - | - | - |
* Rain since midnight (hover to see other rain measurements)
** Current wind speed in m/s (hover to see current wind gust speed)